sensor_id;sensor_type;location;lat;lon;timestamp;pressure;altitude;pressure_sealevel;temperature;humidity
42945;BME280;28584;42.636;23.294;2023-02-27T00:00:18;160979.50;;;9.11;100.00
42945;BME280;28584;42.636;23.294;2023-02-27T00:02:46;161027.53;;;9.29;100.00
42945;BME280;28584;42.636;23.294;2023-02-27T00:05:13;161100.97;;;9.57;100.00
42945;BME280;28584;42.636;23.294;2023-02-27T00:07:38;161130.34;;;9.68;100.00
42945;BME280;28584;42.636;23.294;2023-02-27T00:10:05;161262.59;;;10.17;100.00
42945;BME280;28584;42.636;23.294;2023-02-27T00:12:31;161242.53;;;10.10;100.00
42945;BME280;28584;42.636;23.294;2023-02-27T00:15:04;161249.19;;;10.12;100.00
42945;BME280;28584;42.636;23.294;2023-02-27T00:17:30;161301.28;;;10.32;100.00
42945;BME280;28584;42.636;23.294;2023-02-27T00:19:55;161340.03;;;10.46;100.00
42945;BME280;28584;42.636;23.294;2023-02-27T00:22:21;161340.03;;;10.46;100.00
42945;BME280;28584;42.636;23.294;2023-02-27T00:24:46;161417.50;;;10.75;98.98
42945;BME280;28584;42.636;23.294;2023-02-27T00:27:11;161470.97;;;10.95;94.92
42945;BME280;28584;42.636;23.294;2023-02-27T00:29:37;161484.38;;;11.00;91.16
42945;BME280;28584;42.636;23.294;2023-02-27T00:32:02;161511.03;;;11.10;89.56
42945;BME280;28584;42.636;23.294;2023-02-27T00:34:28;161520.44;;;11.14;90.84
42945;BME280;28584;42.636;23.294;2023-02-27T00:36:53;161529.75;;;11.17;95.19
42945;BME280;28584;42.636;23.294;2023-02-27T00:39:18;161527.09;;;11.16;95.85
42945;BME280;28584;42.636;23.294;2023-02-27T00:41:44;161511.03;;;11.10;95.68
42945;BME280;28584;42.636;23.294;2023-02-27T00:44:09;161508.38;;;11.09;94.34
42945;BME280;28584;42.636;23.294;2023-02-27T00:46:34;161528.44;;;11.17;92.83
42945;BME280;28584;42.636;23.294;2023-02-27T00:49:00;161549.81;;;11.25;92.09
42945;BME280;28584;42.636;23.294;2023-02-27T00:51:25;161553.84;;;11.27;90.95
42945;BME280;28584;42.636;23.294;2023-02-27T00:53:51;161579.22;;;11.36;88.63
42945;BME280;28584;42.636;23.294;2023-02-27T00:56:16;161623.38;;;11.53;84.95
42945;BME280;28584;42.636;23.294;2023-02-27T00:58:42;161664.88;;;11.68;80.99
42945;BME280;28584;42.636;23.294;2023-02-27T01:01:07;161684.91;;;11.76;76.93
42945;BME280;28584;42.636;23.294;2023-02-27T01:03:32;161737.03;;;11.95;72.50
42945;BME280;28584;42.636;23.294;2023-02-27T01:05:58;161757.13;;;12.03;70.66
42945;BME280;28584;42.636;23.294;2023-02-27T01:08:23;161773.19;;;12.09;69.98
42945;BME280;28584;42.636;23.294;2023-02-27T01:10:49;161794.56;;;12.17;68.64
42945;BME280;28584;42.636;23.294;2023-02-27T01:13:14;161781.22;;;12.12;68.41
42945;BME280;28584;42.636;23.294;2023-02-27T01:15:39;161815.97;;;12.25;66.96
42945;BME280;28584;42.636;23.294;2023-02-27T01:18:05;161838.69;;;12.33;65.78
42945;BME280;28584;42.636;23.294;2023-02-27T01:20:30;161837.38;;;12.33;64.74
42945;BME280;28584;42.636;23.294;2023-02-27T01:22:55;161830.66;;;12.30;65.49
42945;BME280;28584;42.636;23.294;2023-02-27T01:25:21;161771.81;;;12.08;68.00
42945;BME280;28584;42.636;23.294;2023-02-27T01:27:46;161726.34;;;11.91;71.05
42945;BME280;28584;42.636;23.294;2023-02-27T01:30:12;161676.88;;;11.73;74.43
42945;BME280;28584;42.636;23.294;2023-02-27T01:32:41;161615.34;;;11.50;77.46
42945;BME280;28584;42.636;23.294;2023-02-27T01:35:07;161501.72;;;11.07;83.34
42945;BME280;28584;42.636;23.294;2023-02-27T01:37:32;161433.56;;;10.81;90.87
42945;BME280;28584;42.636;23.294;2023-02-27T01:39:57;161384.13;;;10.63;94.75
42945;BME280;28584;42.636;23.294;2023-02-27T01:42:26;161353.38;;;10.51;97.25
42945;BME280;28584;42.636;23.294;2023-02-27T01:47:39;161366.75;;;10.56;100.00
42945;BME280;28584;42.636;23.294;2023-02-27T01:50:06;161275.91;;;10.22;100.00
42945;BME280;28584;42.636;23.294;2023-02-27T01:52:33;161287.94;;;10.27;100.00
42945;BME280;28584;42.636;23.294;2023-02-27T01:55:00;161301.28;;;10.32;100.00
42945;BME280;28584;42.636;23.294;2023-02-27T01:57:26;161255.88;;;10.15;100.00
42945;BME280;28584;42.636;23.294;2023-02-27T01:59:52;161211.75;;;9.98;100.00
42945;BME280;28584;42.636;23.294;2023-02-27T02:02:25;161162.34;;;9.80;100.00
42945;BME280;28584;42.636;23.294;2023-02-27T02:04:54;161096.97;;;9.55;100.00
42945;BME280;28584;42.636;23.294;2023-02-27T02:07:20;161064.91;;;9.43;100.00
42945;BME280;28584;42.636;23.294;2023-02-27T02:09:49;161034.19;;;9.32;100.00
42945;BME280;28584;42.636;23.294;2023-02-27T02:12:17;160920.81;;;8.89;100.00
42945;BME280;28584;42.636;23.294;2023-02-27T02:14:43;160792.75;;;8.41;100.00
42945;BME280;28584;42.636;23.294;2023-02-27T02:20:32;160684.66;;;8.00;100.00
42945;BME280;28584;42.636;23.294;2023-02-27T02:23:22;160600.69;;;7.69;100.00
42945;BME280;28584;42.636;23.294;2023-02-27T02:26:10;160582.03;;;7.62;100.00
42945;BME280;28584;42.636;23.294;2023-02-27T02:32:13;160476.75;;;7.22;100.00
42945;BME280;28584;42.636;23.294;2023-02-27T02:40:59;124606.00;;;6.80;100.00
42945;BME280;28584;42.636;23.294;2023-02-27T02:49:09;108367.22;;;6.97;100.00
42945;BME280;28584;42.636;23.294;2023-02-27T02:54:32;108466.44;;;7.20;100.00
42945;BME280;28584;42.636;23.294;2023-02-27T02:57:10;107215.97;;;7.19;100.00
42945;BME280;28584;42.636;23.294;2023-02-27T02:59:46;106499.59;;;7.26;100.00
42945;BME280;28584;42.636;23.294;2023-02-27T03:02:17;104844.41;;;7.28;100.00
42945;BME280;28584;42.636;23.294;2023-02-27T03:04:52;121957.00;;;7.29;100.00
42945;BME280;28584;42.636;23.294;2023-02-27T03:07:24;126351.25;;;7.29;100.00
42945;BME280;28584;42.636;23.294;2023-02-27T03:10:01;150170.34;;;7.55;100.00
42945;BME280;28584;42.636;23.294;2023-02-27T03:12:30;144421.69;;;7.39;100.00
42945;BME280;28584;42.636;23.294;2023-02-27T03:14:58;112804.44;;;6.83;100.00
42945;BME280;28584;42.636;23.294;2023-02-27T03:17:40;94944.75;;;6.61;100.00
42945;BME280;28584;42.636;23.294;2023-02-27T03:20:11;86167.81;;;6.56;100.00
42945;BME280;28584;42.636;23.294;2023-02-27T03:22:42;81118.72;;;6.61;100.00
42945;BME280;28584;42.636;23.294;2023-02-27T03:25:11;78885.78;;;6.56;100.00
42945;BME280;28584;42.636;23.294;2023-02-27T03:27:42;77732.66;;;6.56;100.00
42945;BME280;28584;42.636;23.294;2023-02-27T03:30:40;77431.78;;;6.29;100.00
42945;BME280;28584;42.636;23.294;2023-02-27T03:33:21;77544.31;;;5.97;100.00
42945;BME280;28584;42.636;23.294;2023-02-27T03:38:39;77343.47;;;5.61;100.00
42945;BME280;28584;42.636;23.294;2023-02-27T03:41:36;77269.25;;;5.62;100.00
42945;BME280;28584;42.636;23.294;2023-02-27T03:44:21;76748.88;;;5.79;100.00
42945;BME280;28584;42.636;23.294;2023-02-27T03:46:49;77015.63;;;5.58;100.00
42945;BME280;28584;42.636;23.294;2023-02-27T03:49:14;77028.06;;;5.46;100.00
42945;BME280;28584;42.636;23.294;2023-02-27T03:51:40;76946.69;;;5.52;100.00
42945;BME280;28584;42.636;23.294;2023-02-27T03:54:24;76902.38;;;5.43;100.00
42945;BME280;28584;42.636;23.294;2023-02-27T03:56:59;76762.00;;;5.38;100.00
42945;BME280;28584;42.636;23.294;2023-02-27T03:59:26;76707.94;;;5.25;100.00
42945;BME280;28584;42.636;23.294;2023-02-27T04:01:53;76649.50;;;5.24;100.00
42945;BME280;28584;42.636;23.294;2023-02-27T04:04:19;76509.44;;;5.24;100.00
42945;BME280;28584;42.636;23.294;2023-02-27T04:06:48;76329.66;;;5.31;100.00
42945;BME280;28584;42.636;23.294;2023-02-27T04:12:07;76247.09;;;5.14;100.00
42945;BME280;28584;42.636;23.294;2023-02-27T04:14:55;76202.09;;;5.06;100.00
42945;BME280;28584;42.636;23.294;2023-02-27T04:17:30;76264.84;;;5.05;100.00
42945;BME280;28584;42.636;23.294;2023-02-27T04:20:12;76250.41;;;5.15;100.00
42945;BME280;28584;42.636;23.294;2023-02-27T04:22:48;76162.84;;;5.22;100.00
42945;BME280;28584;42.636;23.294;2023-02-27T04:31:05;76755.97;;;4.69;100.00
42945;BME280;28584;42.636;23.294;2023-02-27T04:33:42;76864.53;;;4.51;100.00
42945;BME280;28584;42.636;23.294;2023-02-27T04:36:17;76892.38;;;4.47;100.00
42945;BME280;28584;42.636;23.294;2023-02-27T04:41:42;76889.94;;;4.60;100.00
42945;BME280;28584;42.636;23.294;2023-02-27T04:44:11;76766.47;;;4.41;100.00
42945;BME280;28584;42.636;23.294;2023-02-27T04:46:41;77067.16;;;4.15;100.00
42945;BME280;28584;42.636;23.294;2023-02-27T04:52:05;77213.00;;;4.24;100.00
42945;BME280;28584;42.636;23.294;2023-02-27T04:54:41;77199.25;;;4.28;100.00
42945;BME280;28584;42.636;23.294;2023-02-27T04:57:11;77126.75;;;4.43;100.00
42945;BME280;28584;42.636;23.294;2023-02-27T04:59:44;76934.88;;;4.62;100.00
42945;BME280;28584;42.636;23.294;2023-02-27T05:02:19;77059.91;;;4.71;100.00
42945;BME280;28584;42.636;23.294;2023-02-27T05:04:53;77149.84;;;4.66;100.00
42945;BME280;28584;42.636;23.294;2023-02-27T05:07:24;77163.31;;;4.57;100.00
42945;BME280;28584;42.636;23.294;2023-02-27T05:10:01;77168.03;;;4.65;100.00
42945;BME280;28584;42.636;23.294;2023-02-27T05:12:34;77074.78;;;4.79;100.00
42945;BME280;28584;42.636;23.294;2023-02-27T05:20:40;77188.78;;;4.75;100.00
42945;BME280;28584;42.636;23.294;2023-02-27T05:23:15;77105.78;;;4.86;100.00
42945;BME280;28584;42.636;23.294;2023-02-27T05:25:53;77040.34;;;4.96;100.00
42945;BME280;28584;42.636;23.294;2023-02-27T05:28:25;77168.66;;;4.83;100.00
42945;BME280;28584;42.636;23.294;2023-02-27T05:31:01;77056.81;;;4.92;100.00
42945;BME280;28584;42.636;23.294;2023-02-27T05:33:37;76958.16;;;4.97;100.00
42945;BME280;28584;42.636;23.294;2023-02-27T05:36:16;77083.94;;;4.82;100.00
42945;BME280;28584;42.636;23.294;2023-02-27T05:38:48;76954.50;;;4.92;100.00
42945;BME280;28584;42.636;23.294;2023-02-27T05:41:19;76918.66;;;5.02;100.00
42945;BME280;28584;42.636;23.294;2023-02-27T05:43:54;76794.72;;;4.96;100.00
42945;BME280;28584;42.636;23.294;2023-02-27T05:46:31;76938.38;;;4.92;100.00
42945;BME280;28584;42.636;23.294;2023-02-27T05:49:00;76903.72;;;4.88;100.00
42945;BME280;28584;42.636;23.294;2023-02-27T05:51:31;76906.50;;;4.71;100.00
42945;BME280;28584;42.636;23.294;2023-02-27T05:54:02;77023.38;;;4.57;100.00
42945;BME280;28584;42.636;23.294;2023-02-27T05:56:31;77215.38;;;4.62;100.00
42945;BME280;28584;42.636;23.294;2023-02-27T05:59:12;77164.53;;;4.75;100.00
42945;BME280;28584;42.636;23.294;2023-02-27T06:01:41;76999.03;;;4.91;100.00
42945;BME280;28584;42.636;23.294;2023-02-27T06:04:06;77028.81;;;4.89;100.00
42945;BME280;28584;42.636;23.294;2023-02-27T06:06:34;77078.41;;;4.75;100.00
42945;BME280;28584;42.636;23.294;2023-02-27T06:08:59;77307.38;;;4.73;100.00
42945;BME280;28584;42.636;23.294;2023-02-27T06:11:25;77229.00;;;4.94;100.00
42945;BME280;28584;42.636;23.294;2023-02-27T06:13:50;77434.56;;;4.99;100.00
42945;BME280;28584;42.636;23.294;2023-02-27T06:16:16;77454.94;;;5.32;100.00
42945;BME280;28584;42.636;23.294;2023-02-27T06:18:41;78388.47;;;5.35;100.00
42945;BME280;28584;42.636;23.294;2023-02-27T06:21:06;79274.25;;;5.57;100.00
42945;BME280;28584;42.636;23.294;2023-02-27T06:23:32;82119.41;;;5.40;100.00
42945;BME280;28584;42.636;23.294;2023-02-27T06:25:57;86053.03;;;5.59;100.00
42945;BME280;28584;42.636;23.294;2023-02-27T06:28:23;91517.44;;;5.91;100.00
42945;BME280;28584;42.636;23.294;2023-02-27T06:30:53;95014.56;;;6.31;100.00
42945;BME280;28584;42.636;23.294;2023-02-27T06:33:19;101475.84;;;6.34;100.00
42945;BME280;28584;42.636;23.294;2023-02-27T06:35:46;114831.28;;;6.08;100.00
42945;BME280;28584;42.636;23.294;2023-02-27T06:38:12;127667.75;;;5.07;100.00
42945;BME280;28584;42.636;23.294;2023-02-27T06:40:37;128039.47;;;4.98;100.00
42945;BME280;28584;42.636;23.294;2023-02-27T06:43:03;124233.97;;;4.88;100.00
42945;BME280;28584;42.636;23.294;2023-02-27T06:45:29;124983.78;;;5.04;100.00
42945;BME280;28584;42.636;23.294;2023-02-27T06:47:54;126373.34;;;4.79;100.00
42945;BME280;28584;42.636;23.294;2023-02-27T06:50:20;124243.63;;;5.02;100.00
42945;BME280;28584;42.636;23.294;2023-02-27T06:52:45;123503.28;;;5.15;100.00
42945;BME280;28584;42.636;23.294;2023-02-27T06:55:10;130308.34;;;5.21;100.00
42945;BME280;28584;42.636;23.294;2023-02-27T06:57:36;135879.59;;;5.19;100.00
42945;BME280;28584;42.636;23.294;2023-02-27T07:00:03;137744.56;;;5.63;100.00
42945;BME280;28584;42.636;23.294;2023-02-27T07:02:30;138889.50;;;6.05;100.00
42945;BME280;28584;42.636;23.294;2023-02-27T07:04:56;152168.09;;;5.97;100.00
42945;BME280;28584;42.636;23.294;2023-02-27T07:07:21;159088.59;;;5.77;100.00
42945;BME280;28584;42.636;23.294;2023-02-27T07:09:47;159490.53;;;5.73;100.00
42945;BME280;28584;42.636;23.294;2023-02-27T07:12:13;159246.47;;;5.59;100.00
42945;BME280;28584;42.636;23.294;2023-02-27T07:14:39;159348.56;;;5.59;100.00
42945;BME280;28584;42.636;23.294;2023-02-27T07:17:04;157698.47;;;5.63;100.00
42945;BME280;28584;42.636;23.294;2023-02-27T07:19:31;159984.03;;;5.37;100.00
42945;BME280;28584;42.636;23.294;2023-02-27T07:21:58;159662.97;;;5.48;100.00
42945;BME280;28584;42.636;23.294;2023-02-27T07:24:23;159056.47;;;5.56;100.00
42945;BME280;28584;42.636;23.294;2023-02-27T07:26:49;160000.03;;;5.43;100.00
42945;BME280;28584;42.636;23.294;2023-02-27T07:29:14;160012.00;;;5.47;100.00
42945;BME280;28584;42.636;23.294;2023-02-27T07:31:40;158894.44;;;5.62;100.00
42945;BME280;28584;42.636;23.294;2023-02-27T07:34:06;154622.16;;;5.69;100.00
42945;BME280;28584;42.636;23.294;2023-02-27T07:36:32;149962.28;;;5.79;100.00
42945;BME280;28584;42.636;23.294;2023-02-27T07:38:58;146167.59;;;5.94;100.00
42945;BME280;28584;42.636;23.294;2023-02-27T07:41:23;156759.63;;;5.53;100.00
42945;BME280;28584;42.636;23.294;2023-02-27T07:43:49;159184.94;;;5.55;100.00
42945;BME280;28584;42.636;23.294;2023-02-27T07:46:14;160001.38;;;5.43;100.00
42945;BME280;28584;42.636;23.294;2023-02-27T07:48:40;159993.38;;;5.40;100.00
42945;BME280;28584;42.636;23.294;2023-02-27T07:51:05;159929.53;;;5.16;100.00
42945;BME280;28584;42.636;23.294;2023-02-27T07:53:31;159928.19;;;5.16;100.00
42945;BME280;28584;42.636;23.294;2023-02-27T07:55:56;159958.78;;;5.27;100.00
42945;BME280;28584;42.636;23.294;2023-02-27T07:58:21;159988.03;;;5.38;100.00
42945;BME280;28584;42.636;23.294;2023-02-27T08:00:47;159950.78;;;5.24;100.00
42945;BME280;28584;42.636;23.294;2023-02-27T08:03:12;159974.75;;;5.33;100.00
42945;BME280;28584;42.636;23.294;2023-02-27T08:05:38;159969.41;;;5.31;100.00
42945;BME280;28584;42.636;23.294;2023-02-27T08:08:03;160022.66;;;5.51;100.00
42945;BME280;28584;42.636;23.294;2023-02-27T08:10:28;160086.53;;;5.75;100.00
42945;BME280;28584;42.636;23.294;2023-02-27T08:12:54;160225.00;;;6.28;100.00
42945;BME280;28584;42.636;23.294;2023-02-27T08:15:19;160326.22;;;6.66;100.00
42945;BME280;28584;42.636;23.294;2023-02-27T08:17:45;160383.50;;;6.87;100.00
42945;BME280;28584;42.636;23.294;2023-02-27T08:20:12;160446.09;;;7.11;100.00
42945;BME280;28584;42.636;23.294;2023-02-27T08:22:39;160507.41;;;7.34;100.00
42945;BME280;28584;42.636;23.294;2023-02-27T08:25:06;160584.69;;;7.63;100.00
42945;BME280;28584;42.636;23.294;2023-02-27T08:27:33;160684.66;;;8.00;100.00
42945;BME280;28584;42.636;23.294;2023-02-27T08:29:59;160842.09;;;8.60;100.00
42945;BME280;28584;42.636;23.294;2023-02-27T08:32:25;160723.31;;;8.15;100.00
42945;BME280;28584;42.636;23.294;2023-02-27T08:34:50;160838.09;;;8.58;100.00
42945;BME280;28584;42.636;23.294;2023-02-27T08:37:15;161007.50;;;9.22;100.00
42945;BME280;28584;42.636;23.294;2023-02-27T08:39:41;160844.75;;;8.61;100.00
42945;BME280;28584;42.636;23.294;2023-02-27T08:42:06;160976.84;;;9.10;100.00
42945;BME280;28584;42.636;23.294;2023-02-27T08:44:32;161106.28;;;9.59;100.00
42945;BME280;28584;42.636;23.294;2023-02-27T08:46:57;161177.03;;;9.85;100.00
42945;BME280;28584;42.636;23.294;2023-02-27T08:49:23;161315.97;;;10.37;100.00
42945;BME280;28584;42.636;23.294;2023-02-27T08:51:50;161348.06;;;10.49;100.00
42945;BME280;28584;42.636;23.294;2023-02-27T08:54:15;161060.91;;;9.42;100.00
42945;BME280;28584;42.636;23.294;2023-02-27T08:56:41;161126.31;;;9.66;100.00
42945;BME280;28584;42.636;23.294;2023-02-27T08:59:06;161259.88;;;10.16;100.00
42945;BME280;28584;42.636;23.294;2023-02-27T09:01:31;161377.44;;;10.60;100.00
42945;BME280;28584;42.636;23.294;2023-02-27T09:04:02;161349.38;;;10.50;100.00
42945;BME280;28584;42.636;23.294;2023-02-27T09:06:29;161527.09;;;11.16;100.00
42945;BME280;28584;42.636;23.294;2023-02-27T09:08:58;161601.94;;;11.45;100.00
42945;BME280;28584;42.636;23.294;2023-02-27T09:11:24;161670.19;;;11.70;100.00
42945;BME280;28584;42.636;23.294;2023-02-27T09:13:50;161837.38;;;12.33;100.00
42945;BME280;28584;42.636;23.294;2023-02-27T09:16:17;161722.34;;;11.90;100.00
42945;BME280;28584;42.636;23.294;2023-02-27T09:18:42;161704.97;;;11.83;100.00
42945;BME280;28584;42.636;23.294;2023-02-27T09:21:08;161763.78;;;12.05;100.00
42945;BME280;28584;42.636;23.294;2023-02-27T09:23:33;161759.78;;;12.04;100.00
42945;BME280;28584;42.636;23.294;2023-02-27T09:25:59;161734.38;;;11.94;100.00
42945;BME280;28584;42.636;23.294;2023-02-27T09:28:24;161679.56;;;11.74;100.00
42945;BME280;28584;42.636;23.294;2023-02-27T09:30:50;161791.91;;;12.16;100.00
42945;BME280;28584;42.636;23.294;2023-02-27T09:33:15;161722.34;;;11.90;96.04
42945;BME280;28584;42.636;23.294;2023-02-27T09:35:41;161619.34;;;11.51;100.00
42945;BME280;28584;42.636;23.294;2023-02-27T09:38:06;161337.38;;;10.45;100.00
42945;BME280;28584;42.636;23.294;2023-02-27T09:40:38;161147.66;;;9.74;100.00
42945;BME280;28584;42.636;23.294;2023-02-27T09:43:13;161245.19;;;10.11;100.00
42945;BME280;28584;42.636;23.294;2023-02-27T09:45:39;161417.50;;;10.75;100.00
42945;BME280;28584;42.636;23.294;2023-02-27T09:48:11;161306.66;;;10.34;100.00
42945;BME280;28584;42.636;23.294;2023-02-27T09:50:41;161373.44;;;10.59;100.00
42945;BME280;28584;42.636;23.294;2023-02-27T09:53:40;161479.00;;;10.98;100.00
42945;BME280;28584;42.636;23.294;2023-02-27T09:58:58;161580.56;;;11.37;100.00
42945;BME280;28584;42.636;23.294;2023-02-27T10:07:06;161472.31;;;10.96;100.00
42945;BME280;28584;42.636;23.294;2023-02-27T10:09:41;161580.56;;;11.37;100.00
42945;BME280;28584;42.636;23.294;2023-02-27T10:15:00;161572.53;;;11.34;100.00
42945;BME280;28584;42.636;23.294;2023-02-27T10:17:30;161636.72;;;11.58;100.00
42945;BME280;28584;42.636;23.294;2023-02-27T10:19:59;161615.34;;;11.50;100.00
42945;BME280;28584;42.636;23.294;2023-02-27T10:22:34;161642.09;;;11.60;100.00
42945;BME280;28584;42.636;23.294;2023-02-27T10:25:38;161539.13;;;11.21;100.00
42945;BME280;28584;42.636;23.294;2023-02-27T10:28:04;;;;10.88;
42945;BME280;28584;42.636;23.294;2023-02-27T10:30:33;161378.78;;;10.61;100.00
42945;BME280;28584;42.636;23.294;2023-02-27T10:36:00;161267.91;;;10.19;100.00
42945;BME280;28584;42.636;23.294;2023-02-27T10:40:54;161215.78;;;10.00;100.00
42945;BME280;28584;42.636;23.294;2023-02-27T10:43:20;161261.22;;;10.17;100.00
42945;BME280;28584;42.636;23.294;2023-02-27T10:45:45;161374.78;;;10.59;100.00
42945;BME280;28584;42.636;23.294;2023-02-27T10:48:11;161501.72;;;11.07;100.00
42945;BME280;28584;42.636;23.294;2023-02-27T10:50:41;161507.03;;;11.09;100.00
42945;BME280;28584;42.636;23.294;2023-02-27T10:53:23;161561.84;;;11.30;100.00
42945;BME280;28584;42.636;23.294;2023-02-27T10:56:02;161667.53;;;11.69;100.00
42945;BME280;28584;42.636;23.294;2023-02-27T10:58:34;161723.69;;;11.90;99.32
42945;BME280;28584;42.636;23.294;2023-02-27T11:01:02;161803.97;;;12.20;99.15
42945;BME280;28584;42.636;23.294;2023-02-27T11:03:32;161873.50;;;12.46;91.31
42945;BME280;28584;42.636;23.294;2023-02-27T11:06:03;161869.47;;;12.45;90.89
42945;BME280;28584;42.636;23.294;2023-02-27T11:08:31;161888.19;;;12.52;86.74
42945;BME280;28584;42.636;23.294;2023-02-27T11:10:59;161833.38;;;12.31;86.47
42945;BME280;28584;42.636;23.294;2023-02-27T11:13:27;161939.06;;;12.71;82.97
42945;BME280;28584;42.636;23.294;2023-02-27T11:18:35;161880.16;;;12.49;79.88
42945;BME280;28584;42.636;23.294;2023-02-27T11:29:22;161711.66;;;11.86;98.57
42945;BME280;28584;42.636;23.294;2023-02-27T11:31:54;161608.63;;;11.47;95.71
42945;BME280;28584;42.636;23.294;2023-02-27T11:34:37;161305.28;;;10.33;100.00
42945;BME280;28584;42.636;23.294;2023-02-27T11:37:06;161354.72;;;10.52;100.00
42945;BME280;28584;42.636;23.294;2023-02-27T11:39:38;161072.91;;;9.46;100.00
42945;BME280;28584;42.636;23.294;2023-02-27T11:42:15;161324.00;;;10.40;100.00
42945;BME280;28584;42.636;23.294;2023-02-27T11:44:50;161527.09;;;11.16;100.00
42945;BME280;28584;42.636;23.294;2023-02-27T11:47:27;161551.19;;;11.26;100.00
42945;BME280;28584;42.636;23.294;2023-02-27T11:49:59;161529.75;;;11.17;100.00
42945;BME280;28584;42.636;23.294;2023-02-27T11:54:57;161786.53;;;12.14;100.00
42945;BME280;28584;42.636;23.294;2023-02-27T11:57:35;161742.41;;;11.97;99.14
42945;BME280;28584;42.636;23.294;2023-02-27T12:05:08;161656.84;;;11.65;100.00
42945;BME280;28584;42.636;23.294;2023-02-27T12:07:45;161345.41;;;10.48;100.00
42945;BME280;28584;42.636;23.294;2023-02-27T12:10:19;161401.50;;;10.69;100.00
42945;BME280;28584;42.636;23.294;2023-02-27T12:12:52;161441.59;;;10.84;100.00
42945;BME280;28584;42.636;23.294;2023-02-27T12:15:28;161647.47;;;11.62;100.00
42945;BME280;28584;42.636;23.294;2023-02-27T12:20:54;161605.97;;;11.46;100.00
42945;BME280;28584;42.636;23.294;2023-02-27T12:26:01;161854.75;;;12.39;100.00
42945;BME280;28584;42.636;23.294;2023-02-27T12:28:38;161886.91;;;12.51;97.79
42945;BME280;28584;42.636;23.294;2023-02-27T12:31:24;161893.56;;;12.54;98.29
42945;BME280;28584;42.636;23.294;2023-02-27T12:34:01;161882.88;;;12.50;92.37
42945;BME280;28584;42.636;23.294;2023-02-27T12:36:28;162011.31;;;12.98;94.42
42945;BME280;28584;42.636;23.294;2023-02-27T12:38:54;162169.38;;;13.57;88.96
42945;BME280;28584;42.636;23.294;2023-02-27T12:46:38;161830.66;;;12.30;87.09
42945;BME280;28584;42.636;23.294;2023-02-27T13:03:11;162173.34;;;13.58;81.87
42945;BME280;28584;42.636;23.294;2023-02-27T13:05:43;162212.19;;;13.73;78.69
42945;BME280;28584;42.636;23.294;2023-02-27T13:10:45;162217.56;;;13.75;78.58
42945;BME280;28584;42.636;23.294;2023-02-27T13:13:43;162192.09;;;13.65;80.11
42945;BME280;28584;42.636;23.294;2023-02-27T13:19:25;162164.00;;;13.55;84.53
42945;BME280;28584;42.636;23.294;2023-02-27T13:21:55;162072.94;;;13.21;88.86
42945;BME280;28584;42.636;23.294;2023-02-27T13:24:29;161963.13;;;12.80;95.98
42945;BME280;28584;42.636;23.294;2023-02-27T13:29:32;161770.47;;;12.08;100.00
42945;BME280;28584;42.636;23.294;2023-02-27T13:34:58;161444.22;;;10.85;100.00
42945;BME280;28584;42.636;23.294;2023-02-27T13:37:49;161604.66;;;11.46;100.00
42945;BME280;28584;42.636;23.294;2023-02-27T13:40:36;161569.88;;;11.33;100.00
42945;BME280;28584;42.636;23.294;2023-02-27T13:46:24;161381.47;;;10.62;100.00
42945;BME280;28584;42.636;23.294;2023-02-27T13:54:26;161271.91;;;10.21;100.00
42945;BME280;28584;42.636;23.294;2023-02-27T13:59:30;160939.50;;;8.96;100.00
42945;BME280;28584;42.636;23.294;2023-02-27T14:04:48;160723.31;;;8.15;100.00
42945;BME280;28584;42.636;23.294;2023-02-27T14:07:16;160733.97;;;8.19;100.00
42945;BME280;28584;42.636;23.294;2023-02-27T14:09:47;160719.31;;;8.13;100.00
42945;BME280;28584;42.636;23.294;2023-02-27T14:12:35;160722.03;;;8.14;100.00
42945;BME280;28584;42.636;23.294;2023-02-27T14:15:04;160686.00;;;8.01;100.00
42945;BME280;28584;42.636;23.294;2023-02-27T14:23:24;160630.00;;;7.80;100.00
42945;BME280;28584;42.636;23.294;2023-02-27T14:25:30;160615.34;;;7.74;100.00
42945;BME280;28584;42.636;23.294;2023-02-27T14:27:58;160614.00;;;7.74;100.00
42945;BME280;28584;42.636;23.294;2023-02-27T14:30:37;160547.38;;;7.49;100.00
42945;BME280;28584;42.636;23.294;2023-02-27T14:33:19;160560.72;;;7.54;100.00
42945;BME280;28584;42.636;23.294;2023-02-27T14:35:52;160547.38;;;7.49;100.00
42945;BME280;28584;42.636;23.294;2023-02-27T14:38:20;160512.72;;;7.36;100.00
42945;BME280;28584;42.636;23.294;2023-02-27T14:43:50;160503.41;;;7.32;100.00
42945;BME280;28584;42.636;23.294;2023-02-27T14:49:00;160480.75;;;7.24;100.00
42945;BME280;28584;42.636;23.294;2023-02-27T14:51:29;160496.75;;;7.30;100.00
42945;BME280;28584;42.636;23.294;2023-02-27T14:54:21;160503.41;;;7.32;100.00
42945;BME280;28584;42.636;23.294;2023-02-27T14:56:59;160514.06;;;7.36;100.00
42945;BME280;28584;42.636;23.294;2023-02-27T15:01:57;160542.00;;;7.47;100.00
42945;BME280;28584;42.636;23.294;2023-02-27T15:04:27;160542.00;;;7.47;100.00
42945;BME280;28584;42.636;23.294;2023-02-27T15:06:54;160508.72;;;7.34;100.00
42945;BME280;28584;42.636;23.294;2023-02-27T15:09:31;160472.75;;;7.21;100.00
42945;BME280;28584;42.636;23.294;2023-02-27T15:11:58;160434.09;;;7.06;100.00
42945;BME280;28584;42.636;23.294;2023-02-27T15:14:32;158699.88;;;6.96;100.00
42945;BME280;28584;42.636;23.294;2023-02-27T15:16:59;142082.06;;;6.86;100.00
42945;BME280;28584;42.636;23.294;2023-02-27T15:19:29;122769.88;;;6.78;100.00